Overview Statistics Trail Chart Weather Telemetry Raw packets
 

This is the latest recevied weather packets stored in our database for station/object K6POO-1. If no packets are shown the sender has not sent any weather packets the latest 10 day(s).

<< 101 102 103 104 105 106 107 >>
Time Temp. Humidity Pressure Rain* Wind** Luminosity Snow
1787934056 15.56° C 86% 1016.4 hPa 0 mm - 119 W/m² -
1787933755 16.11° C 84% 1016.4 hPa 0 mm - 121 W/m² -
1787933451 16.11° C 83% 1016.3 hPa 0 mm - 142 W/m² -
1787933144 16.67° C 80% 1016.1 hPa 0 mm - 162 W/m² -
1787932839 16.67° C 80% 1016.1 hPa 0 mm - 177 W/m² -
1787932532 17.22° C 80% 1016 hPa 0 mm - 182 W/m² -
1787932227 17.22° C 79% 1015.7 hPa 0 mm - 136 W/m² -
1787931927 16.67° C 80% 1015.7 hPa 0 mm - 123 W/m² -
1787931621 16.67° C 81% 1015.6 hPa 0 mm - 126 W/m² -
1787931315 16.67° C 82% 1015.5 hPa 0 mm - 128 W/m² -
1787931010 16.11° C 83% 1015.7 hPa 0 mm - 111 W/m² -
1787930709 15.56° C 85% 1015.7 hPa 0 mm - 83 W/m² -
1787930404 15.56° C 87% 1015.9 hPa 0 mm - 59 W/m² -
1787930099 15° C 88% 1016 hPa 0 mm - 49 W/m² -
1787929796 15° C 89% 1015.6 hPa 0 mm - 47 W/m² -
1787929492 15° C 89% 1015.8 hPa 0 mm - 42 W/m² -
1787929189 15° C 89% 1015.9 hPa 0 mm - 33 W/m² -
1787928884 15° C 89% 1015.8 hPa 0 mm - 27 W/m² -
1787928579 15° C 88% 1015.4 hPa 0 mm - 25 W/m² -
1787928278 15° C 87% 1015.5 hPa 0 mm - 22 W/m² -
1787927976 15.56° C 85% 1015.5 hPa 0 mm - 21 W/m² -
1787927671 15.56° C 85% 1015 hPa 0 mm - 19 W/m² -
1787927371 15.56° C 85% 1014.8 hPa 0 mm - 20 W/m² -
1787927067 15.56° C 85% 1014.5 hPa 0 mm - 19 W/m² -
1787926762 15.56° C 85% 1014.4 hPa 0 mm - 15 W/m² -

* Rain latest hour (hover to see other rain measurements)
** Current wind speed in m/s (hover to see current wind gust speed)